Time;durP1;ratioP1;P1;durP2;ratioP2;P2;SDS_P1;SDS_P2;PMS_P1;PMS_P2;Temp;Humidity;BMP_temperature;BMP_pressure;BME280_temperature;BME280_humidity;BME280_pressure;Samples;Min_cycle;Max_cycle;Signal;HPM_P1;HPM_P2
2022/03/14 00:00:29;;;;;;;16.60;12.25;;;9.50;83.00;;;;;;5113902;28;20044;-73
2022/03/14 00:02:55;;;;;;;17.00;12.85;;;9.40;83.30;;;;;;5092347;28;20048;-73
2022/03/14 00:05:21;;;;;;;16.65;11.60;;;9.40;83.80;;;;;;5095124;28;20043;-73
2022/03/14 00:07:47;;;;;;;17.30;11.45;;;9.40;84.20;;;;;;5096195;28;20077;-73
2022/03/14 00:10:15;;;;;;;23.67;12.30;;;9.30;84.40;;;;;;5095030;28;20076;-73
2022/03/14 00:12:46;;;;;;;15.45;10.73;;;9.40;85.10;;;;;;5113601;28;20081;-73
2022/03/14 00:15:13;;;;;;;21.10;11.65;;;9.40;85.90;;;;;;5095571;28;20567;-73
2022/03/14 00:17:41;;;;;;;18.50;11.60;;;9.40;86.90;;;;;;5095672;28;20385;-73
2022/03/14 00:20:11;;;;;;;19.15;11.27;;;9.40;87.70;;;;;;5102669;28;20505;-73
2022/03/14 00:22:37;;;;;;;16.17;11.55;;;9.40;88.20;;;;;;5114187;28;20042;-73
2022/03/14 00:25:05;;;;;;;13.93;10.98;;;9.50;88.80;;;;;;5094172;28;20052;-73
2022/03/14 00:27:30;;;;;;;15.00;11.27;;;9.50;89.30;;;;;;5113343;28;20051;-73
2022/03/14 00:29:56;;;;;;;15.93;11.35;;;9.50;89.80;;;;;;5113671;28;20454;-73
2022/03/14 00:32:22;;;;;;;22.27;12.02;;;9.50;90.10;;;;;;5095515;28;20044;-73
2022/03/14 00:34:47;;;;;;;17.98;11.98;;;9.50;90.30;;;;;;5091304;28;20044;-73
2022/03/14 00:37:13;;;;;;;18.15;12.80;;;9.50;90.50;;;;;;5092516;28;20086;-73
2022/03/14 00:39:40;;;;;;;19.38;11.93;;;9.60;90.70;;;;;;5077848;28;20043;-73
2022/03/14 00:42:05;;;;;;;15.77;11.20;;;9.60;90.90;;;;;;5113182;28;20533;-73
2022/03/14 00:44:32;;;;;;;15.60;11.88;;;9.60;91.10;;;;;;5113721;28;20126;-73
2022/03/14 00:46:57;;;;;;;13.25;10.90;;;9.60;91.20;;;;;;5091524;28;20047;-73
2022/03/14 00:49:23;;;;;;;17.08;11.35;;;9.70;91.60;;;;;;5109540;28;20050;-73
2022/03/14 00:51:49;;;;;;;13.60;10.70;;;9.70;91.80;;;;;;5113372;28;20043;-73
2022/03/14 00:54:15;;;;;;;18.60;11.70;;;9.70;92.00;;;;;;5112841;28;20066;-73
2022/03/14 00:56:40;;;;;;;16.55;11.63;;;9.70;92.30;;;;;;5095301;28;20548;-73
2022/03/14 00:59:06;;;;;;;13.52;10.10;;;9.70;92.40;;;;;;5113199;28;20046;-73
2022/03/14 01:01:32;;;;;;;17.75;11.07;;;9.70;92.60;;;;;;5094247;28;20043;-73
2022/03/14 01:03:59;;;;;;;12.48;9.95;;;9.70;92.90;;;;;;5113465;28;20118;-73
2022/03/14 01:06:24;;;;;;;12.75;10.77;;;9.70;93.10;;;;;;5113783;28;20063;-74
2022/03/14 01:08:50;;;;;;;20.08;10.65;;;9.70;93.40;;;;;;5112287;28;20043;-74
2022/03/14 01:11:16;;;;;;;13.63;10.10;;;9.70;93.70;;;;;;5099606;28;20061;-73
2022/03/14 01:13:43;;;;;;;12.32;10.48;;;9.70;93.80;;;;;;5095908;28;20127;-73
2022/03/14 01:16:09;;;;;;;12.23;10.35;;;9.70;94.00;;;;;;5096700;28;20062;-73
2022/03/14 01:18:35;;;;;;;15.40;10.85;;;9.70;94.20;;;;;;5098928;28;20494;-73
2022/03/14 01:21:01;;;;;;;12.95;10.38;;;9.70;94.50;;;;;;5095445;28;20048;-73
2022/03/14 01:23:26;;;;;;;16.33;11.73;;;9.70;94.60;;;;;;5087978;28;20474;-73
2022/03/14 01:25:52;;;;;;;14.88;10.77;;;9.70;94.80;;;;;;5099727;28;20047;-73
2022/03/14 01:28:18;;;;;;;14.73;10.45;;;9.60;94.90;;;;;;5116931;28;20424;-73
2022/03/14 01:30:44;;;;;;;15.63;11.10;;;9.60;95.00;;;;;;5116500;28;20406;-73
2022/03/14 01:33:13;;;;;;;14.63;10.43;;;9.60;95.10;;;;;;5116702;28;20042;-73
2022/03/14 01:35:41;;;;;;;17.00;10.65;;;9.60;95.30;;;;;;5095545;28;20044;-73
2022/03/14 01:38:07;;;;;;;12.90;10.45;;;9.60;95.50;;;;;;5086072;28;20043;-73
2022/03/14 01:40:33;;;;;;;14.10;10.98;;;9.60;95.60;;;;;;5116628;28;20040;-73
2022/03/14 01:42:59;;;;;;;13.00;9.85;;;9.60;95.70;;;;;;5115935;28;20038;-73
2022/03/14 01:45:25;;;;;;;14.25;10.98;;;9.60;95.90;;;;;;5117214;28;20031;-73
2022/03/14 01:47:51;;;;;;;13.75;10.52;;;9.60;96.00;;;;;;5116513;28;20056;-73
2022/03/14 01:50:18;;;;;;;12.10;10.05;;;9.50;96.10;;;;;;5094389;28;20081;-73
2022/03/14 01:52:46;;;;;;;12.05;9.73;;;9.50;96.30;;;;;;5094157;28;20048;-73
2022/03/14 01:55:14;;;;;;;14.60;10.15;;;9.50;96.50;;;;;;5080105;28;20490;-73
2022/03/14 01:57:40;;;;;;;16.23;9.85;;;9.50;96.60;;;;;;5085982;28;20083;-73
2022/03/14 02:00:08;;;;;;;13.27;10.60;;;9.50;96.80;;;;;;5116549;28;20114;-73
2022/03/14 02:02:34;;;;;;;12.38;10.52;;;9.50;97.00;;;;;;5098292;28;20120;-73
2022/03/14 02:05:00;;;;;;;11.50;9.45;;;9.40;97.10;;;;;;5080898;28;20071;-74
2022/03/14 02:07:26;;;;;;;14.20;10.88;;;9.40;97.40;;;;;;5116478;28;20561;-73
2022/03/14 02:09:52;;;;;;;11.80;10.00;;;9.40;97.60;;;;;;5097916;28;20071;-74
2022/03/14 02:12:18;;;;;;;14.13;10.85;;;9.30;97.80;;;;;;5094034;28;20483;-73
2022/03/14 02:14:44;;;;;;;13.23;10.50;;;9.30;98.00;;;;;;5110031;28;20055;-73
2022/03/14 02:17:11;;;;;;;17.15;11.23;;;9.30;98.40;;;;;;5098242;28;20051;-74
2022/03/14 02:19:38;;;;;;;14.20;10.98;;;9.30;98.50;;;;;;5115069;28;20031;-73
2022/03/14 02:22:08;;;;;;;15.57;11.07;;;9.20;98.60;;;;;;5079243;28;20561;-73
2022/03/14 02:24:34;;;;;;;13.95;11.52;;;9.20;98.70;;;;;;5113374;28;20043;-74
2022/03/14 02:26:59;;;;;;;13.15;10.90;;;9.20;98.90;;;;;;5096542;28;20360;-73
2022/03/14 02:29:25;;;;;;;16.70;11.77;;;9.30;98.90;;;;;;5097684;28;20385;-74
2022/03/14 02:31:52;;;;;;;14.00;11.50;;;9.20;99.00;;;;;;5097854;28;20036;-73
2022/03/14 02:34:18;;;;;;;15.95;11.27;;;9.20;99.10;;;;;;5097553;28;20437;-74
2022/03/14 02:36:44;;;;;;;16.50;11.25;;;9.20;99.30;;;;;;5115905;28;20043;-73
2022/03/14 02:39:10;;;;;;;14.05;9.93;;;9.20;99.40;;;;;;5097349;28;20058;-73
2022/03/14 02:41:37;;;;;;;13.55;11.05;;;9.00;99.40;;;;;;5097229;28;20048;-73
2022/03/14 02:44:08;;;;;;;15.55;10.65;;;9.20;99.50;;;;;;5115767;28;20069;-74
2022/03/14 02:46:34;;;;;;;14.90;11.55;;;9.20;99.60;;;;;;5096531;28;20169;-73
2022/03/14 02:49:01;;;;;;;15.98;10.70;;;9.20;99.80;;;;;;5097343;28;20052;-74
2022/03/14 02:51:27;;;;;;;15.95;11.80;;;9.30;99.90;;;;;;5115725;28;20043;-74
2022/03/14 02:53:57;;;;;;;15.55;10.35;;;9.10;99.90;;;;;;5113870;28;20047;-73
2022/03/14 02:56:26;;;;;;;14.48;10.85;;;9.10;99.90;;;;;;5115616;28;20043;-74
2022/03/14 02:58:52;;;;;;;14.43;10.20;;;9.10;99.90;;;;;;5097067;28;20139;-74
2022/03/14 03:01:18;;;;;;;15.43;11.60;;;9.10;99.90;;;;;;5115039;28;20520;-73
2022/03/14 03:03:44;;;;;;;13.10;11.07;;;9.10;99.90;;;;;;5114969;28;20123;-74
2022/03/14 03:06:13;;;;;;;11.45;9.95;;;9.10;99.90;;;;;;5115114;28;20079;-74
2022/03/14 03:08:43;;;;;;;14.57;10.45;;;9.10;99.90;;;;;;5092671;28;20044;-74
2022/03/14 03:11:12;;;;;;;11.55;9.75;;;9.10;99.90;;;;;;5077101;28;20114;-74
2022/03/14 03:13:41;;;;;;;11.88;9.05;;;9.10;99.90;;;;;;5110679;28;20402;-74
2022/03/14 03:16:13;;;;;;;12.25;9.65;;;9.10;99.90;;;;;;5114728;28;20032;-73
2022/03/14 03:18:39;;;;;;;10.40;8.70;;;9.20;99.90;;;;;;5096520;28;20060;-74
2022/03/14 03:21:05;;;;;;;9.57;7.80;;;9.20;99.90;;;;;;5115078;28;20051;-74
2022/03/14 03:23:31;;;;;;;12.73;8.82;;;9.20;99.90;;;;;;5114293;28;20040;-73
2022/03/14 03:25:57;;;;;;;9.88;7.70;;;9.20;99.90;;;;;;5114725;28;20035;-74
2022/03/14 03:28:23;;;;;;;9.30;7.03;;;9.20;99.90;;;;;;5095834;28;20039;-74
2022/03/14 03:30:48;;;;;;;9.45;7.85;;;9.20;99.90;;;;;;5115294;28;20039;-74
2022/03/14 03:33:15;;;;;;;9.68;7.28;;;9.20;99.90;;;;;;5113717;28;20406;-74
2022/03/14 03:35:41;;;;;;;11.05;8.75;;;9.20;99.90;;;;;;5114365;28;20050;-74
2022/03/14 03:38:06;;;;;;;9.50;7.40;;;9.20;99.90;;;;;;5096272;28;20490;-74
2022/03/14 03:40:32;;;;;;;9.60;7.20;;;9.20;99.90;;;;;;5114586;28;20077;-74
2022/03/14 03:42:58;;;;;;;9.45;7.40;;;9.30;99.90;;;;;;5113563;28;20027;-74
2022/03/14 03:45:24;;;;;;;13.07;8.32;;;9.20;99.90;;;;;;5114688;28;20122;-73
2022/03/14 03:47:49;;;;;;;11.98;7.75;;;9.20;99.90;;;;;;5095814;28;20055;-74
2022/03/14 03:50:16;;;;;;;11.20;8.20;;;9.20;99.90;;;;;;5113611;28;20036;-73
2022/03/14 03:52:42;;;;;;;11.45;8.05;;;9.20;99.90;;;;;;5114474;28;20047;-74
2022/03/14 03:55:09;;;;;;;12.25;9.32;;;9.10;99.90;;;;;;5092719;28;20036;-74
2022/03/14 03:57:35;;;;;;;12.27;9.20;;;9.10;99.90;;;;;;5110138;28;20058;-74
2022/03/14 04:00:07;;;;;;;10.35;8.18;;;9.00;99.90;;;;;;5114068;28;20081;-74
2022/03/14 04:02:38;;;;;;;9.73;7.95;;;9.00;99.90;;;;;;5095791;28;20043;-74
2022/03/14 04:05:05;;;;;;;10.95;7.63;;;9.00;99.90;;;;;;5095758;28;20050;-74
2022/03/14 04:07:32;;;;;;;8.70;7.50;;;9.00;99.90;;;;;;5113738;28;20039;-74
2022/03/14 04:09:59;;;;;;;8.05;7.18;;;9.00;99.90;;;;;;5113935;28;20051;-74
2022/03/14 04:12:26;;;;;;;8.77;7.07;;;9.00;99.90;;;;;;5113453;28;20036;-74
2022/03/14 04:14:58;;;;;;;9.00;6.30;;;9.00;99.90;;;;;;5095535;28;20100;-73
2022/03/14 04:17:25;;;;;;;8.20;6.88;;;9.00;99.90;;;;;;5112502;28;20134;-74
2022/03/14 04:19:52;;;;;;;7.40;6.07;;;9.00;99.90;;;;;;5113360;28;20115;-73
2022/03/14 04:22:19;;;;;;;6.75;5.95;;;9.00;99.90;;;;;;5095735;28;20114;-73
2022/03/14 04:24:45;;;;;;;8.45;6.50;;;8.90;99.90;;;;;;5094982;28;20043;-74
2022/03/14 04:27:11;;;;;;;7.25;5.70;;;8.90;99.90;;;;;;5095214;28;20048;-73
2022/03/14 04:29:37;;;;;;;5.75;5.10;;;8.90;99.90;;;;;;5113442;28;20118;-73
2022/03/14 04:32:03;;;;;;;5.80;5.20;;;8.90;99.90;;;;;;5095042;28;20047;-73
2022/03/14 04:34:29;;;;;;;6.50;5.05;;;8.80;99.90;;;;;;5095172;28;20097;-74
2022/03/14 04:36:55;;;;;;;5.45;4.80;;;8.80;99.90;;;;;;5113640;28;20032;-74
2022/03/14 04:39:21;;;;;;;6.75;4.90;;;8.80;99.90;;;;;;5113225;28;20093;-74
2022/03/14 04:41:47;;;;;;;5.50;4.15;;;8.80;99.90;;;;;;5091634;28;20058;-74
2022/03/14 04:44:13;;;;;;;6.03;4.47;;;8.70;99.90;;;;;;5080845;28;20035;-74
2022/03/14 04:46:39;;;;;;;5.65;4.88;;;8.70;99.90;;;;;;5113052;28;20118;-73
2022/03/14 04:49:07;;;;;;;5.85;4.88;;;8.70;99.90;;;;;;5113251;28;20060;-74
2022/03/14 04:51:33;;;;;;;4.90;4.40;;;8.70;99.90;;;;;;5113874;28;20122;-74
2022/03/14 04:53:59;;;;;;;5.43;4.50;;;8.70;99.90;;;;;;5112776;28;20122;-74
2022/03/14 04:56:25;;;;;;;5.38;3.95;;;8.60;99.90;;;;;;5094622;28;20135;-74
2022/03/14 04:58:52;;;;;;;6.30;3.88;;;8.60;99.90;;;;;;5113758;28;20542;-74
2022/03/14 05:01:22;;;;;;;7.93;4.45;;;8.70;99.90;;;;;;5112664;28;20422;-74
2022/03/14 05:03:48;;;;;;;7.18;4.10;;;8.70;99.90;;;;;;5079989;28;20087;-73
2022/03/14 05:06:13;;;;;;;6.75;4.32;;;8.70;99.90;;;;;;5086329;28;20079;-73
2022/03/14 05:08:39;;;;;;;4.50;3.78;;;8.80;99.90;;;;;;5113081;28;20092;-73
2022/03/14 05:11:05;;;;;;;5.18;3.90;;;8.80;99.90;;;;;;5095338;28;20040;-74
2022/03/14 05:13:31;;;;;;;7.70;3.72;;;8.80;99.90;;;;;;5095078;28;20503;-73
2022/03/14 05:15:57;;;;;;;4.93;3.65;;;8.80;99.90;;;;;;5109620;28;20109;-74
2022/03/14 05:18:23;;;;;;;6.65;3.47;;;8.90;99.90;;;;;;5075187;28;20036;-74
2022/03/14 05:20:48;;;;;;;3.95;3.35;;;8.90;99.90;;;;;;5081057;28;20153;-74
2022/03/14 05:23:14;;;;;;;3.88;2.80;;;8.90;99.90;;;;;;5092625;28;20063;-74
2022/03/14 05:25:40;;;;;;;3.85;3.28;;;8.90;99.90;;;;;;5082798;28;20044;-74
2022/03/14 05:28:06;;;;;;;4.13;3.67;;;9.00;99.90;;;;;;5094715;28;20047;-74
2022/03/14 05:30:31;;;;;;;3.40;3.10;;;9.00;99.90;;;;;;5112786;28;20486;-74
2022/03/14 05:32:57;;;;;;;5.15;3.00;;;9.00;99.90;;;;;;5094987;28;20360;-74
2022/03/14 05:35:23;;;;;;;3.40;3.10;;;9.00;99.90;;;;;;5112604;28;20127;-74
2022/03/14 05:37:49;;;;;;;6.05;2.97;;;9.00;99.90;;;;;;5113011;28;20040;-74
2022/03/14 05:40:20;;;;;;;3.75;2.95;;;9.00;99.90;;;;;;5112502;28;20042;-74
2022/03/14 05:42:47;;;;;;;4.20;3.20;;;9.10;99.90;;;;;;5092134;28;20044;-73
2022/03/14 05:45:14;;;;;;;3.80;3.38;;;9.00;99.90;;;;;;5091619;28;20048;-72
2022/03/14 05:47:40;;;;;;;3.35;3.05;;;9.00;99.90;;;;;;5105224;28;20483;-73
2022/03/14 05:50:06;;;;;;;3.83;3.47;;;9.00;99.90;;;;;;5078649;28;20502;-73
2022/03/14 05:52:32;;;;;;;3.55;3.00;;;9.00;99.90;;;;;;5092177;28;20085;-73
2022/03/14 05:54:58;;;;;;;3.90;3.28;;;9.00;99.90;;;;;;5086382;28;20371;-74
2022/03/14 05:57:24;;;;;;;3.63;3.10;;;9.00;99.90;;;;;;5089116;28;20048;-74
2022/03/14 05:59:50;;;;;;;3.97;3.28;;;9.00;99.90;;;;;;5098469;28;20391;-74
2022/03/14 06:02:22;;;;;;;5.50;3.22;;;8.90;99.90;;;;;;5115939;28;20054;-74
2022/03/14 06:04:49;;;;;;;5.00;3.17;;;9.00;99.90;;;;;;5115576;28;20474;-74
2022/03/14 06:07:15;;;;;;;3.33;3.03;;;8.90;99.90;;;;;;5117039;28;20043;-74
2022/03/14 06:09:41;;;;;;;3.25;2.78;;;8.90;99.90;;;;;;5116279;28;20137;-74
2022/03/14 06:12:07;;;;;;;3.05;2.75;;;8.90;99.90;;;;;;5097518;28;20039;-74
2022/03/14 06:14:34;;;;;;;4.50;3.30;;;8.90;99.90;;;;;;5081797;28;20035;-74
2022/03/14 06:16:59;;;;;;;3.78;3.00;;;9.00;99.90;;;;;;5094366;28;20051;-73
2022/03/14 06:19:26;;;;;;;3.70;3.03;;;9.00;99.90;;;;;;5114911;28;20035;-73
2022/03/14 06:21:52;;;;;;;4.13;3.00;;;9.00;99.90;;;;;;5089894;28;20178;-73
2022/03/14 06:24:18;;;;;;;3.95;2.45;;;9.00;99.90;;;;;;5080639;28;20436;-73
2022/03/14 06:26:44;;;;;;;3.15;2.83;;;9.00;99.90;;;;;;5081108;28;20036;-73
2022/03/14 06:29:10;;;;;;;2.92;2.70;;;9.10;99.90;;;;;;5098158;28;20486;-73
2022/03/14 06:31:36;;;;;;;2.90;2.60;;;9.10;99.90;;;;;;5115256;28;20074;-73
2022/03/14 06:34:02;;;;;;;5.20;2.78;;;9.20;99.90;;;;;;5097498;28;20402;-73
2022/03/14 06:36:29;;;;;;;3.35;2.72;;;9.20;99.90;;;;;;5115845;28;20078;-74
2022/03/14 06:38:59;;;;;;;8.48;3.20;;;9.30;99.90;;;;;;5112544;28;20585;-73
2022/03/14 06:41:26;;;;;;;3.60;2.85;;;9.30;99.90;;;;;;5115311;28;20512;-73
2022/03/14 06:43:53;;;;;;;3.33;2.95;;;9.30;99.90;;;;;;5116003;28;20067;-73
2022/03/14 06:46:19;;;;;;;3.47;2.72;;;9.30;99.90;;;;;;5114584;28;20499;-73
2022/03/14 06:48:46;;;;;;;3.88;3.00;;;9.40;99.90;;;;;;5093865;28;20059;-73
2022/03/14 06:51:12;;;;;;;3.35;2.80;;;9.40;99.90;;;;;;5095307;28;20048;-73
2022/03/14 06:53:38;;;;;;;4.75;2.67;;;9.40;99.90;;;;;;5094239;28;20088;-73
2022/03/14 06:56:04;;;;;;;3.40;2.47;;;9.40;99.90;;;;;;5090425;28;20089;-73
2022/03/14 06:58:30;;;;;;;2.75;2.55;;;9.40;99.90;;;;;;5074909;28;20482;-73
2022/03/14 07:00:57;;;;;;;3.08;2.78;;;9.50;99.90;;;;;;5093948;28;20082;-73
2022/03/14 07:03:23;;;;;;;5.97;2.67;;;9.50;99.90;;;;;;5088979;28;20036;-72
2022/03/14 07:05:56;;;;;;;6.43;3.30;;;9.50;99.90;;;;;;5092218;28;20048;-72
2022/03/14 07:08:25;;;;;;;6.05;3.10;;;9.50;99.90;;;;;;5088920;28;20036;-72
2022/03/14 07:10:50;;;;;;;3.80;2.75;;;9.50;99.90;;;;;;5093088;28;20185;-72
2022/03/14 07:13:16;;;;;;;4.22;2.85;;;9.50;99.90;;;;;;5094369;28;20523;-72
2022/03/14 07:15:42;;;;;;;2.78;2.55;;;9.60;99.90;;;;;;5091966;28;20075;-72
2022/03/14 07:18:08;;;;;;;3.15;2.70;;;9.60;99.90;;;;;;5094332;28;20067;-72
2022/03/14 07:20:34;;;;;;;3.30;3.00;;;9.60;99.90;;;;;;5092222;28;20044;-72
2022/03/14 07:23:01;;;;;;;4.90;3.20;;;9.60;99.90;;;;;;5094324;28;20043;-72
2022/03/14 07:25:28;;;;;;;3.15;2.83;;;9.60;99.90;;;;;;5093549;28;20125;-72
2022/03/14 07:27:58;;;;;;;4.05;3.53;;;9.60;99.90;;;;;;5091783;28;20090;-72
2022/03/14 07:30:24;;;;;;;3.75;3.08;;;9.70;99.90;;;;;;5093169;28;20060;-72
2022/03/14 07:32:51;;;;;;;3.47;3.17;;;9.70;99.90;;;;;;5093507;28;20044;-72
2022/03/14 07:35:17;;;;;;;3.90;3.60;;;9.70;99.90;;;;;;5093098;28;20028;-72
2022/03/14 07:37:46;;;;;;;4.57;3.10;;;9.70;99.90;;;;;;5089992;28;20058;-72
2022/03/14 07:40:13;;;;;;;3.70;3.40;;;9.80;99.90;;;;;;5093739;28;20039;-72
2022/03/14 07:42:41;;;;;;;4.85;3.30;;;9.80;99.90;;;;;;5087077;28;20072;-72
2022/03/14 07:45:07;;;;;;;3.80;3.03;;;9.80;99.90;;;;;;5092940;28;20101;-72
2022/03/14 07:47:33;;;;;;;4.25;3.80;;;9.90;99.90;;;;;;5095925;28;20048;-73
2022/03/14 07:49:59;;;;;;;3.38;3.08;;;9.90;99.90;;;;;;5095216;28;20046;-72
2022/03/14 07:52:25;;;;;;;3.97;3.60;;;9.90;99.90;;;;;;5109854;28;20040;-72
2022/03/14 07:54:50;;;;;;;5.38;3.78;;;9.90;99.90;;;;;;5102487;28;20039;-72
2022/03/14 07:57:16;;;;;;;5.15;3.78;;;10.00;99.90;;;;;;5113043;28;20514;-72
2022/03/14 07:59:46;;;;;;;3.95;3.38;;;10.00;99.90;;;;;;5093107;28;20062;-72
2022/03/14 08:02:12;;;;;;;7.38;3.85;;;10.00;99.90;;;;;;5113207;28;20434;-72
2022/03/14 08:04:40;;;;;;;4.20;3.80;;;10.00;99.90;;;;;;5094776;28;20054;-72
2022/03/14 08:07:06;;;;;;;6.22;4.57;;;10.00;99.90;;;;;;5114036;28;20081;-72
2022/03/14 08:09:32;;;;;;;4.20;3.80;;;10.00;99.90;;;;;;5113744;28;20046;-72
2022/03/14 08:12:00;;;;;;;6.35;4.57;;;10.00;99.90;;;;;;5095169;28;20054;-72
2022/03/14 08:14:27;;;;;;;5.25;4.75;;;10.10;99.90;;;;;;5113724;28;20115;-72
2022/03/14 08:16:53;;;;;;;6.60;4.35;;;10.00;99.90;;;;;;5112898;28;20071;-72
2022/03/14 08:19:20;;;;;;;5.40;4.90;;;10.00;99.90;;;;;;5113106;28;20047;-72
2022/03/14 08:21:51;;;;;;;5.38;4.70;;;10.10;99.90;;;;;;5109777;28;20032;-72
2022/03/14 08:24:17;;;;;;;5.13;4.63;;;10.10;99.90;;;;;;5112892;28;20114;-72
2022/03/14 08:26:43;;;;;;;7.32;5.80;;;10.10;99.90;;;;;;5113662;28;20188;-72
2022/03/14 08:29:09;;;;;;;6.25;5.65;;;10.00;99.90;;;;;;5095070;28;20054;-72
2022/03/14 08:31:35;;;;;;;5.82;5.25;;;10.00;99.90;;;;;;5112453;28;20028;-72
2022/03/14 08:34:01;;;;;;;10.15;5.53;;;10.00;99.90;;;;;;5113990;28;20047;-73
2022/03/14 08:36:27;;;;;;;6.55;5.95;;;10.00;99.90;;;;;;5113079;28;20035;-73
2022/03/14 08:38:53;;;;;;;7.50;6.60;;;10.00;99.90;;;;;;5112738;28;20050;-73
2022/03/14 08:41:19;;;;;;;7.97;6.70;;;9.90;99.90;;;;;;5075646;28;20040;-73
2022/03/14 08:43:46;;;;;;;7.90;7.10;;;9.90;99.90;;;;;;5095244;28;20084;-73
2022/03/14 08:46:14;;;;;;;8.95;8.05;;;9.90;99.90;;;;;;5112379;28;20050;-72
2022/03/14 08:48:41;;;;;;;11.95;10.75;;;9.80;99.90;;;;;;5112983;28;20120;-72
2022/03/14 08:51:06;;;;;;;11.57;10.43;;;9.80;99.90;;;;;;5113558;28;20100;-72
2022/03/14 08:53:32;;;;;;;15.05;11.80;;;9.80;99.90;;;;;;5094548;28;20043;-73
2022/03/14 08:56:01;;;;;;;15.00;13.30;;;9.80;99.90;;;;;;5113198;28;20386;-72
2022/03/14 08:58:29;;;;;;;17.20;14.82;;;9.80;99.90;;;;;;5113361;28;20494;-72
2022/03/14 09:00:55;;;;;;;18.83;16.70;;;9.80;99.90;;;;;;5091026;28;20044;-72
2022/03/14 09:03:21;;;;;;;23.02;19.83;;;9.80;99.90;;;;;;5106875;28;20050;-73
2022/03/14 09:05:47;;;;;;;20.65;17.77;;;9.70;99.90;;;;;;5088057;28;20040;-72
2022/03/14 09:08:12;;;;;;;22.10;19.60;;;9.70;99.90;;;;;;5111983;28;20050;-72
2022/03/14 09:10:39;;;;;;;20.42;17.95;;;9.70;99.90;;;;;;5113610;28;20036;-73
2022/03/14 09:13:05;;;;;;;20.90;17.38;;;9.70;99.90;;;;;;5112120;28;20043;-72
2022/03/14 09:15:31;;;;;;;21.88;18.10;;;9.70;99.90;;;;;;5094942;28;20399;-73
2022/03/14 09:17:59;;;;;;;24.60;18.90;;;9.70;99.90;;;;;;5094424;28;20442;-72
2022/03/14 09:20:29;;;;;;;22.42;19.90;;;9.60;99.90;;;;;;5093331;28;20055;-72
2022/03/14 09:22:55;;;;;;;23.52;20.52;;;9.50;99.90;;;;;;5077999;28;20470;-72
2022/03/14 09:25:22;;;;;;;23.73;19.55;;;9.50;99.90;;;;;;5112381;28;20126;-72
2022/03/14 09:27:49;;;;;;;23.27;19.25;;;9.40;99.90;;;;;;5112392;28;20047;-72
2022/03/14 09:30:16;;;;;;;24.67;19.50;;;9.40;99.90;;;;;;5113199;28;20444;-71
2022/03/14 09:32:42;;;;;;;23.27;18.67;;;9.30;99.90;;;;;;5116850;28;20065;-72
2022/03/14 09:35:10;;;;;;;21.27;15.90;;;9.30;99.90;;;;;;5116136;28;20047;-72
2022/03/14 09:37:37;;;;;;;26.27;17.73;;;9.30;99.90;;;;;;5098110;28;20444;-71
2022/03/14 09:40:10;;;;;;;23.55;18.05;;;9.30;99.90;;;;;;5116481;28;20555;-71
2022/03/14 09:42:39;;;;;;;24.30;19.05;;;9.30;99.90;;;;;;5080993;28;20046;-71
2022/03/14 09:45:06;;;;;;;26.48;16.67;;;9.20;99.90;;;;;;5113466;28;20043;-72
2022/03/14 09:47:54;;;;;;;24.25;17.92;;;9.30;99.90;;;;;;5097953;28;20063;-72
2022/03/14 09:50:34;;;;;;;26.02;17.35;;;9.30;99.90;;;;;;5116290;28;20414;-72
2022/03/14 09:53:07;;;;;;;25.38;17.17;;;9.30;99.90;;;;;;5116163;28;20417;-72
2022/03/14 09:55:38;;;;;;;21.60;16.13;;;9.30;99.90;;;;;;5115931;28;20508;-72
2022/03/14 09:58:06;;;;;;;27.08;17.35;;;9.30;99.90;;;;;;5098363;28;20573;-72
2022/03/14 10:00:32;;;;;;;27.15;17.83;;;9.30;99.90;;;;;;5098585;28;20052;-72
2022/03/14 10:02:58;;;;;;;25.67;16.98;;;9.30;99.90;;;;;;5114729;28;20045;-72
2022/03/14 10:05:24;;;;;;;22.75;15.07;;;9.40;99.90;;;;;;5116611;28;20134;-72
2022/03/14 10:07:50;;;;;;;21.45;14.75;;;9.40;99.90;;;;;;5098015;28;20118;-71
2022/03/14 10:10:17;;;;;;;20.67;14.75;;;9.40;99.90;;;;;;5097109;28;20082;-72
2022/03/14 10:12:44;;;;;;;23.48;14.63;;;9.40;99.90;;;;;;5116402;28;20119;-72
2022/03/14 10:15:11;;;;;;;21.63;14.10;;;9.50;99.90;;;;;;5098343;28;20055;-72
2022/03/14 10:17:37;;;;;;;19.10;12.98;;;9.50;99.90;;;;;;5097073;28;20039;-71
2022/03/14 10:20:06;;;;;;;27.25;14.00;;;9.60;99.90;;;;;;5116170;28;20385;-72
2022/03/14 10:22:39;;;;;;;24.33;12.65;;;9.60;99.90;;;;;;5116003;28;20051;-72
2022/03/14 10:25:09;;;;;;;23.35;13.20;;;9.70;99.90;;;;;;5115303;28;20047;-72
2022/03/14 10:27:37;;;;;;;23.55;13.35;;;9.70;99.90;;;;;;5097765;28;20553;-72
2022/03/14 10:30:05;;;;;;;20.70;11.98;;;9.80;99.90;;;;;;5115634;28;20117;-72
2022/03/14 10:32:33;;;;;;;20.45;12.02;;;9.80;99.90;;;;;;5096774;28;20092;-71
2022/03/14 10:35:06;;;;;;;19.95;11.90;;;9.90;99.90;;;;;;5116057;28;20047;-71
2022/03/14 10:37:34;;;;;;;17.20;10.75;;;9.90;99.90;;;;;;5080598;28;20047;-72
2022/03/14 10:40:06;;;;;;;19.33;10.15;;;9.90;99.90;;;;;;5091334;28;20110;-72
2022/03/14 10:42:43;;;;;;;18.83;10.63;;;9.90;99.90;;;;;;5097470;28;20051;-72
2022/03/14 10:45:16;;;;;;;21.92;9.30;;;10.00;99.90;;;;;;5096622;28;20035;-72
2022/03/14 10:47:46;;;;;;;17.73;9.23;;;10.00;99.90;;;;;;5097482;28;20134;-72
2022/03/14 10:50:29;;;;;;;17.52;8.13;;;10.00;99.90;;;;;;5115188;28;20063;-72
2022/03/14 10:53:18;;;;;;;22.23;9.75;;;10.00;99.90;;;;;;5114534;28;20067;-72
2022/03/14 10:55:47;;;;;;;18.00;8.02;;;10.00;99.90;;;;;;5097374;28;20084;-72
2022/03/14 10:58:21;;;;;;;18.50;7.85;;;9.90;99.90;;;;;;5093959;28;20433;-72
2022/03/14 11:00:50;;;;;;;13.48;6.93;;;10.00;99.90;;;;;;5108319;28;20054;-72
2022/03/14 11:03:37;;;;;;;14.20;7.10;;;10.00;99.90;;;;;;5115501;28;20044;-72
2022/03/14 11:06:04;;;;;;;15.40;6.90;;;10.00;99.90;;;;;;5114222;28;20510;-72
2022/03/14 11:08:38;;;;;;;22.10;8.13;;;9.90;99.90;;;;;;5080202;28;20115;-72
2022/03/14 11:11:16;;;;;;;12.07;6.43;;;10.00;99.90;;;;;;5110229;28;20194;-72
2022/03/14 11:13:47;;;;;;;22.25;9.10;;;10.10;99.90;;;;;;5096129;28;20286;-72
2022/03/14 11:16:26;;;;;;;18.55;7.53;;;10.00;99.90;;;;;;5097092;28;20383;-72
2022/03/14 11:18:53;;;;;;;21.63;7.55;;;10.00;99.90;;;;;;5077061;28;20130;-72
2022/03/14 11:21:24;;;;;;;18.35;6.68;;;10.00;99.90;;;;;;5110291;28;20100;-72
2022/03/14 11:23:52;;;;;;;16.75;7.60;;;10.10;99.90;;;;;;5115017;28;20390;-72
2022/03/14 11:26:21;;;;;;;16.10;7.93;;;10.10;99.90;;;;;;5114459;28;20063;-72
2022/03/14 11:28:49;;;;;;;16.70;7.13;;;10.10;99.90;;;;;;5110719;28;20398;-72
2022/03/14 11:31:17;;;;;;;21.02;7.95;;;10.20;99.90;;;;;;5096444;28;20124;-72
2022/03/14 11:33:43;;;;;;;19.85;9.57;;;10.20;99.90;;;;;;5114319;28;20497;-72
2022/03/14 11:36:09;;;;;;;21.48;9.93;;;10.30;99.90;;;;;;5114418;28;20507;-73
2022/03/14 11:38:36;;;;;;;22.25;10.80;;;10.30;99.90;;;;;;5096668;28;20043;-72
2022/03/14 11:41:03;;;;;;;21.88;10.52;;;10.40;99.90;;;;;;5095589;28;20035;-72
2022/03/14 11:43:29;;;;;;;29.25;11.98;;;10.40;99.90;;;;;;5114805;28;20043;-72
2022/03/14 11:46:00;;;;;;;24.58;11.85;;;10.40;99.90;;;;;;5096353;28;20505;-72
2022/03/14 11:48:31;;;;;;;22.08;11.73;;;10.40;99.90;;;;;;5113423;28;20371;-72
2022/03/14 11:50:59;;;;;;;20.55;10.75;;;10.50;99.90;;;;;;5096619;28;20145;-72
2022/03/14 11:53:36;;;;;;;30.27;12.23;;;10.50;99.90;;;;;;5094865;28;20475;-72
2022/03/14 11:56:07;;;;;;;25.83;11.27;;;10.50;99.90;;;;;;5093776;28;20044;-72
2022/03/14 11:58:37;;;;;;;21.00;11.05;;;10.60;99.90;;;;;;5065503;28;20043;-72
2022/03/14 12:01:15;;;;;;;21.95;10.52;;;10.60;99.90;;;;;;5096223;28;20397;-72
2022/03/14 12:03:58;;;;;;;21.27;10.82;;;10.60;99.90;;;;;;5113284;28;20092;-72
2022/03/14 12:06:45;;;;;;;24.83;11.07;;;10.70;99.90;;;;;;5094012;28;20054;-72
2022/03/14 12:09:23;;;;;;;23.25;10.65;;;10.70;99.90;;;;;;5094335;28;20235;-72
2022/03/14 12:11:50;;;;;;;20.27;10.55;;;10.70;99.90;;;;;;5078642;28;20039;-72
2022/03/14 12:14:45;;;;;;;24.85;11.35;;;10.80;99.90;;;;;;5113317;28;20149;-72
2022/03/14 12:17:14;;;;;;;23.55;11.82;;;10.80;99.90;;;;;;5112108;28;20111;-72
2022/03/14 12:19:47;;;;;;;21.25;10.50;;;10.90;99.90;;;;;;5113732;28;20044;-72
2022/03/14 12:22:32;;;;;;;22.30;11.73;;;11.00;99.90;;;;;;5113909;28;20051;-72
2022/03/14 12:24:59;;;;;;;22.30;10.77;;;11.00;99.90;;;;;;5110955;28;20047;-72
2022/03/14 12:27:31;;;;;;;23.70;12.50;;;11.20;99.90;;;;;;5096151;28;20051;-73
2022/03/14 12:29:58;;;;;;;20.17;12.93;;;11.30;99.90;;;;;;5113627;28;20047;-73
2022/03/14 12:32:55;;;;;;;29.17;14.52;;;11.30;99.90;;;;;;5113913;28;20052;-72
2022/03/14 12:35:25;;;;;;;26.30;15.02;;;11.30;99.90;;;;;;5089298;28;20561;-72
2022/03/14 12:37:56;;;;;;;21.17;13.15;;;11.30;99.90;;;;;;5112001;28;20047;-72
2022/03/14 12:40:22;;;;;;;29.00;13.07;;;11.40;99.90;;;;;;5094278;28;20053;-73
2022/03/14 12:43:08;;;;;;;21.50;12.40;;;11.50;99.90;;;;;;5095482;28;20130;-73
2022/03/14 12:45:39;;;;;;;24.05;12.45;;;11.50;99.90;;;;;;5094817;28;20054;-72